Terminal Aerodrome Forecast
Issued by NWS Cleveland, OH

Home | Current Version | Previous Version | Graphics & Text | Print | Product List | Glossary On
Versions: 1 2 3 4 5 6 7 8 9 10 11 12 13 14 15
000
FTUS41 KCLE 271857 AAA
TAFCAK
TAF AMD
KCAK 271857Z 2719/2818 35007KT P6SM SCT025 BKN045
      TEMPO 2719/2721 BKN025
     FM280100 VRB03KT P6SM FEW040
      TEMPO 2809/2812 3SM BR=

USA.gov is the U.S. government's official web portal to all federal, state and local government web resources and services.